Time;durP1;ratioP1;P1;durP2;ratioP2;P2;SDS_P1;SDS_P2;PMS_P1;PMS_P2;Temp;Humidity;BMP_temperature;BMP_pressure;BME280_temperature;BME280_humidity;BME280_pressure;Samples;Min_cycle;Max_cycle;Signal;HPM_P1;HPM_P2
2022/06/21 00:00:29;;;;;;;;;;;;;;;-149.78;100.00;50129.19;5100345;28;20407;-71
2022/06/21 00:03:00;;;;;;;;;;;;;;;-149.78;100.00;50115.50;5104522;28;19968;-71
2022/06/21 00:05:31;;;;;;;;;;;;;;;-149.78;100.00;50105.72;5102374;28;19945;-71
2022/06/21 00:08:00;;;;;;;;;;;;;;;-149.78;100.00;50111.59;5100593;28;20768;-71
2022/06/21 00:10:34;;;;;;;;;;;;;;;-149.78;100.00;50119.41;5084025;28;19924;-71
2022/06/21 00:13:18;;;;;;;;;;;;;;;-149.78;100.00;50142.88;5102341;28;20518;-71
2022/06/21 00:15:45;;;;;;;;;;;;;;;-149.78;100.00;50127.25;5102573;28;19963;-71
2022/06/21 00:18:16;;;;;;;;;;;;;;;-149.78;100.00;50076.41;5099798;28;19916;-71
2022/06/21 00:20:41;;;;;;;;;;;;;;;-149.78;100.00;50150.72;5084806;28;19935;-71
2022/06/21 00:23:12;;;;;;;;;;;;;;;-149.78;100.00;50117.47;5098082;28;19916;-71
2022/06/21 00:25:38;;;;;;;;;;;;;;;-149.78;100.00;50135.06;5101850;28;19920;-71
2022/06/21 00:28:04;;;;;;;;;;;;;;;-149.78;100.00;50138.97;5102449;28;19972;-71
2022/06/21 00:30:29;;;;;;;;;;;;;;;-149.78;100.00;50146.81;5100755;28;19949;-71
2022/06/21 00:32:55;;;;;;;;;;;;;;;-149.78;100.00;50103.78;5102580;28;19928;-71
2022/06/21 00:35:22;;;;;;;;;;;;;;;-149.78;100.00;50127.25;5104911;28;19971;-71
2022/06/21 00:37:48;;;;;;;;;;;;;;;-149.78;100.00;50150.72;5102540;28;20044;-71
2022/06/21 00:40:18;;;;;;;;;;;;;;;-149.78;100.00;50119.41;5105063;28;19945;-71
2022/06/21 00:42:45;;;;;;;;;;;;;;;-149.78;100.00;50140.94;5103224;28;19924;-71
2022/06/21 00:45:25;;;;;;;;;;;;;;;-149.78;100.00;50121.38;5103686;28;19959;-71
2022/06/21 00:47:52;;;;;;;;;;;;;;;-149.78;100.00;50142.88;5104798;28;19915;-71
2022/06/21 00:50:24;;;;;;;;;;;;;;;-149.78;100.00;50125.28;5104421;28;19922;-71
2022/06/21 00:52:58;;;;;;;;;;;;;;;-149.78;100.00;50154.63;5102117;28;19941;-71
2022/06/21 00:55:34;;;;;;;;;;;;;;;-149.78;100.00;50152.66;5099953;28;19915;-71
2022/06/21 00:57:59;;;;;;;;;;;;;;;-149.78;100.00;50162.44;5103418;28;19922;-71
2022/06/21 01:00:57;;;;;;;;;;;;;;;-149.78;100.00;50135.06;5100131;28;19928;-71
2022/06/21 01:03:28;;;;;;;;;;;;;;;-149.78;100.00;50168.31;5090876;28;19920;-71
2022/06/21 01:05:55;;;;;;;;;;;;;;;-149.78;100.00;50162.44;5100127;28;19962;-71
2022/06/21 01:08:24;;;;;;;;;;;;;;;-149.78;100.00;50115.50;5104542;28;20319;-71
2022/06/21 01:10:54;;;;;;;;;;;;;;;-149.78;100.00;50115.50;5104865;28;19927;-71
2022/06/21 01:13:22;;;;;;;;;;;;;;;-149.78;100.00;50154.63;5099378;28;20760;-71
2022/06/21 01:15:49;;;;;;;;;;;;;;;-149.78;100.00;50113.56;5104380;28;19920;-71
2022/06/21 01:18:16;;;;;;;;;;;;;;;-149.78;100.00;50146.81;5098718;28;20014;-71
2022/06/21 01:20:44;;;;;;;;;;;;;;;-149.78;100.00;50146.81;5103630;28;19919;-71
2022/06/21 01:23:36;;;;;;;;;;;;;;;-149.78;100.00;50131.16;5099987;28;19951;-71
2022/06/21 01:26:31;;;;;;;;;;;;;;;-149.78;100.00;50142.88;5095729;28;19989;-71
2022/06/21 01:28:57;;;;;;;;;;;;;;;-149.78;100.00;50138.97;5095900;28;20116;-71
2022/06/21 01:31:23;;;;;;;;;;;;;;;-149.78;100.00;50174.19;5105575;28;19919;-71
2022/06/21 01:33:48;;;;;;;;;;;;;;;-149.78;100.00;50123.34;5106088;28;19916;-71
2022/06/21 01:36:17;;;;;;;;;;;;;;;-149.78;100.00;50119.41;5108868;28;19955;-71
2022/06/21 01:39:03;;;;;;;;;;;;;;;-149.78;100.00;50166.34;5105050;28;20002;-71
2022/06/21 01:41:32;;;;;;;;;;;;;;;-149.78;100.00;50107.69;5106105;28;19927;-71
2022/06/21 01:43:59;;;;;;;;;;;;;;;-149.78;100.00;50140.94;5106682;28;20380;-71
2022/06/21 01:46:27;;;;;;;;;;;;;;;-149.78;100.00;50109.66;5106500;28;19923;-71
2022/06/21 01:48:55;;;;;;;;;;;;;;;-149.78;100.00;50119.41;5105497;28;19954;-71
2022/06/21 01:51:38;;;;;;;;;;;;;;;-149.78;100.00;50105.72;5107557;28;19919;-71
2022/06/21 01:54:05;;;;;;;;;;;;;;;-149.78;100.00;50125.28;5103720;28;19916;-71
2022/06/21 01:56:34;;;;;;;;;;;;;;;-149.78;100.00;50135.06;5099823;28;20389;-71
2022/06/21 01:59:11;;;;;;;;;;;;;;;-149.78;100.00;50131.16;5100255;28;19972;-71
2022/06/21 02:01:40;;;;;;;;;;;;;;;-149.78;100.00;50123.34;5087058;28;20287;-71
2022/06/21 02:04:08;;;;;;;;;;;;;;;-149.78;100.00;50107.69;5104346;28;20399;-71
2022/06/21 02:06:35;;;;;;;;;;;;;;;-149.78;100.00;50092.03;5104280;28;20018;-71
2022/06/21 02:09:03;;;;;;;;;;;;;;;-149.78;100.00;50111.59;5105688;28;20255;-71
2022/06/21 02:11:33;;;;;;;;;;;;;;;-149.78;100.00;50111.59;5103678;28;19934;-71
2022/06/21 02:16:47;;;;;;;;;;;;;;;-149.78;100.00;50133.09;5104617;28;19916;-71
2022/06/21 02:19:24;;;;;;;;;;;;;;;-149.78;100.00;50138.97;5102706;28;19923;-71
2022/06/21 02:21:50;;;;;;;;;;;;;;;-149.78;100.00;50097.91;5107414;28;20383;-71
2022/06/21 02:24:16;;;;;;;;;;;;;;;-149.78;100.00;50103.78;5105570;28;19964;-71
2022/06/21 02:26:42;;;;;;;;;;;;;;;-149.78;100.00;50138.97;5103860;28;19923;-71
2022/06/21 02:29:09;;;;;;;;;;;;;;;-149.78;100.00;50148.75;5105594;28;20301;-71
2022/06/21 02:31:35;;;;;;;;;;;;;;;-149.78;100.00;50111.59;5102539;28;19916;-71
2022/06/21 02:34:03;;;;;;;;;;;;;;;-149.78;100.00;50131.16;5104162;28;19920;-71
2022/06/21 02:36:44;;;;;;;;;;;;;;;-149.78;100.00;50123.34;5104651;28;19924;-71
2022/06/21 02:39:12;;;;;;;;;;;;;;;-149.78;100.00;50131.16;5105271;28;19981;-71
2022/06/21 02:41:42;;;;;;;;;;;;;;;-149.78;100.00;50144.84;5105341;28;19978;-71
2022/06/21 02:44:26;;;;;;;;;;;;;;;-149.78;100.00;50099.88;5105967;28;21326;-71
2022/06/21 02:46:56;;;;;;;;;;;;;;;-149.78;100.00;50123.34;5105223;28;19962;-71
2022/06/21 02:49:28;;;;;;;;;;;;;;;-149.78;100.00;50123.34;5099145;28;20657;-70
2022/06/21 02:51:56;;;;;;;;;;;;;;;-149.78;100.00;50095.94;5103391;28;20378;-71
2022/06/21 02:54:25;;;;;;;;;;;;;;;-149.78;100.00;50148.75;5100189;28;20392;-71
2022/06/21 02:57:03;;;;;;;;;;;;;;;-149.78;100.00;50142.88;5101596;28;20287;-71
2022/06/21 02:59:31;;;;;;;;;;;;;;;-149.78;100.00;50101.81;5104936;28;20386;-71
2022/06/21 03:01:58;;;;;;;;;;;;;;;-149.78;100.00;50123.34;5101660;28;20778;-71
2022/06/21 03:04:30;;;;;;;;;;;;;;;-149.78;100.00;50144.84;5104685;28;20463;-71
2022/06/21 03:06:56;;;;;;;;;;;;;;;-149.78;100.00;50150.72;5104487;28;20076;-68
2022/06/21 03:09:22;;;;;;;;;;;;;;;-149.78;100.00;50119.41;5104937;28;20633;-68
2022/06/21 03:11:50;;;;;;;;;;;;;;;-149.78;100.00;50115.50;5105075;28;19923;-68
2022/06/21 03:14:18;;;;;;;;;;;;;;;-149.78;100.00;50103.78;5106077;28;19916;-68
2022/06/21 03:16:45;;;;;;;;;;;;;;;-149.78;100.00;50129.19;5105331;28;20877;-68
2022/06/21 03:19:33;;;;;;;;;;;;;;;-149.78;100.00;50094.00;5104844;28;20018;-68
2022/06/21 03:22:01;;;;;;;;;;;;;;;-149.78;100.00;50115.50;5095651;28;19916;-68
2022/06/21 03:24:27;;;;;;;;;;;;;;;-149.78;100.00;50123.34;5095422;28;20045;-69
2022/06/21 03:27:03;;;;;;;;;;;;;;;-149.78;100.00;50123.34;5101932;28;20006;-68
2022/06/21 03:29:29;;;;;;;;;;;;;;;-149.78;100.00;50129.19;5105233;28;20338;-71
2022/06/21 03:31:55;;;;;;;;;;;;;;;-149.78;100.00;50135.06;5104226;28;19919;-68
2022/06/21 03:34:22;;;;;;;;;;;;;;;-149.78;100.00;50158.53;5104664;28;20043;-68
2022/06/21 03:36:48;;;;;;;;;;;;;;;-149.78;100.00;50138.97;5101070;28;19933;-68
2022/06/21 03:39:18;;;;;;;;;;;;;;;-149.78;100.00;50133.09;5103447;28;20023;-70
2022/06/21 03:41:45;;;;;;;;;;;;;;;-149.78;100.00;50131.16;5103829;28;19998;-70
2022/06/21 03:44:16;;;;;;;;;;;;;;;-149.78;100.00;50119.41;5104060;28;19915;-70
2022/06/21 03:46:44;;;;;;;;;;;;;;;-149.78;100.00;50166.34;5102276;28;19919;-70
2022/06/21 03:49:17;;;;;;;;;;;;;;;-149.78;100.00;50174.19;5103751;28;19924;-70
2022/06/21 03:51:44;;;;;;;;;;;;;;;-149.78;100.00;50129.19;5103169;28;19923;-71
2022/06/21 03:54:15;;;;;;;;;;;;;;;-149.78;100.00;50166.34;5104142;28;19924;-71
2022/06/21 03:56:40;;;;;;;;;;;;;;;-149.78;100.00;50146.81;5103591;28;19979;-71
2022/06/21 03:59:18;;;;;;;;;;;;;;;-149.78;100.00;50135.06;5102745;28;19923;-70
2022/06/21 04:01:50;;;;;;;;;;;;;;;-149.78;100.00;50140.94;5102314;28;19924;-71
2022/06/21 04:04:22;;;;;;;;;;;;;;;-149.78;100.00;50142.88;5096763;28;19919;-71
2022/06/21 04:07:17;;;;;;;;;;;;;;;-149.78;100.00;50142.88;5099426;28;20667;-71
2022/06/21 04:10:03;;;;;;;;;;;;;;;-149.78;100.00;50125.28;5094450;28;19916;-71
2022/06/21 04:12:35;;;;;;;;;;;;;;;-149.78;100.00;50115.50;5104061;28;19920;-71
2022/06/21 04:15:09;;;;;;;;;;;;;;;-149.78;100.00;50156.56;5103008;28;19920;-71
2022/06/21 04:17:49;;;;;;;;;;;;;;;-149.78;100.00;50127.25;5100148;28;20298;-71
2022/06/21 04:20:41;;;;;;;;;;;;;;;-149.78;100.00;50158.53;5102811;28;19920;-70
2022/06/21 04:23:26;;;;;;;;;;;;;;;-149.78;100.00;50178.09;5086857;28;20015;-71
2022/06/21 04:25:52;;;;;;;;;;;;;;;-149.78;100.00;50140.94;5105107;28;19931;-70
2022/06/21 04:28:21;;;;;;;;;;;;;;;-149.78;100.00;50150.72;5100875;28;19919;-71
2022/06/21 04:30:51;;;;;;;;;;;;;;;-149.78;100.00;50162.44;5105132;28;19931;-71
2022/06/21 04:33:24;;;;;;;;;;;;;;;-149.78;100.00;50144.84;5104687;28;19926;-70
2022/06/21 04:35:53;;;;;;;;;;;;;;;-149.78;100.00;50131.16;5103176;28;20010;-70
2022/06/21 04:38:25;;;;;;;;;;;;;;;-149.78;100.00;50150.72;5103931;28;19920;-70
2022/06/21 04:40:56;;;;;;;;;;;;;;;-149.78;100.00;50158.53;5104654;28;19919;-70
2022/06/21 04:43:26;;;;;;;;;;;;;;;-149.78;100.00;50142.88;5104835;28;19924;-71
2022/06/21 04:45:55;;;;;;;;;;;;;;;-149.78;100.00;50162.44;5102954;28;20014;-70
2022/06/21 04:48:27;;;;;;;;;;;;;;;-149.78;100.00;50127.25;5104043;28;19930;-70
2022/06/21 04:51:18;;;;;;;;;;;;;;;-149.78;100.00;50150.72;5104204;28;19931;-71
2022/06/21 04:54:02;;;;;;;;;;;;;;;-149.78;100.00;50119.41;5103519;28;19920;-71
2022/06/21 04:56:27;;;;;;;;;;;;;;;-149.78;100.00;50146.81;5104115;28;19963;-71
2022/06/21 04:58:53;;;;;;;;;;;;;;;-149.78;100.00;50158.53;5103511;28;19935;-71
2022/06/21 05:01:32;;;;;;;;;;;;;;;-149.78;100.00;50125.28;5104709;28;20393;-71
2022/06/21 05:04:00;;;;;;;;;;;;;;;-149.78;100.00;50119.41;5104506;28;20361;-71
2022/06/21 05:06:26;;;;;;;;;;;;;;;-149.78;100.00;50135.06;5106073;28;19927;-71
2022/06/21 05:08:52;;;;;;;;;;;;;;;-149.78;100.00;50135.06;5109414;28;20613;-71
2022/06/21 05:11:18;;;;;;;;;;;;;;;-149.78;100.00;50142.88;5106753;28;19923;-71
2022/06/21 05:13:46;;;;;;;;;;;;;;;-149.78;100.00;50121.38;5106856;28;20451;-71
2022/06/21 05:16:32;;;;;;;;;;;;;;;-149.78;100.00;50135.06;5104811;28;19930;-71
2022/06/21 05:19:02;;;;;;;;;;;;;;;-149.78;100.00;50095.94;5086815;28;19923;-71
2022/06/21 05:21:37;;;;;;;;;;;;;;;-149.78;100.00;50146.81;5088054;28;20321;-71
2022/06/21 05:24:03;;;;;;;;;;;;;;;-149.78;100.00;50103.78;5104228;28;19916;-71
2022/06/21 05:26:35;;;;;;;;;;;;;;;-149.78;100.00;50129.19;5107053;28;20424;-71
2022/06/21 05:29:09;;;;;;;;;;;;;;;-149.78;100.00;50115.50;5104660;28;19915;-71
2022/06/21 05:31:37;;;;;;;;;;;;;;;-149.78;100.00;50142.88;5105958;28;20395;-71
2022/06/21 05:34:21;;;;;;;;;;;;;;;-149.78;100.00;50133.09;5101848;28;19924;-71
2022/06/21 05:36:56;;;;;;;;;;;;;;;-149.78;100.00;50105.72;5107197;28;20378;-71
2022/06/21 05:39:25;;;;;;;;;;;;;;;-149.78;100.00;50113.56;5104601;28;20367;-71
2022/06/21 05:41:52;;;;;;;;;;;;;;;-149.78;100.00;50072.50;5107027;28;20391;-69
2022/06/21 05:44:28;;;;;;;;;;;;;;;-149.78;100.00;50138.97;5104566;28;21727;-71
2022/06/21 05:46:57;;;;;;;;;;;;;;;-149.78;100.00;50111.59;5105249;28;20339;-71
2022/06/21 05:49:31;;;;;;;;;;;;;;;-149.78;100.00;50099.88;5105379;28;19955;-71
2022/06/21 05:52:00;;;;;;;;;;;;;;;-149.78;100.00;50109.66;5107223;28;19966;-71
2022/06/21 05:54:29;;;;;;;;;;;;;;;-149.78;100.00;50072.50;5102680;28;20759;-71
2022/06/21 05:56:55;;;;;;;;;;;;;;;-149.78;100.00;50076.41;5101050;28;20398;-71
2022/06/21 05:59:23;;;;;;;;;;;;;;;-149.78;91.04;50076.41;5100810;28;19931;-71
2022/06/21 06:02:08;;;;;;;;;;;;;;;-149.78;91.59;50072.50;5096002;28;20383;-71
2022/06/21 06:04:40;;;;;;;;;;;;;;;-149.78;87.54;50072.50;5099389;28;19977;-71
2022/06/21 06:07:09;;;;;;;;;;;;;;;-149.78;85.80;50058.78;5100308;28;21046;-72
2022/06/21 06:09:45;;;;;;;;;;;;;;;-149.78;97.20;50084.22;5100138;28;19915;-71
2022/06/21 06:12:14;;;;;;;;;;;;;;;-149.78;100.00;50092.03;5097607;28;19930;-70
2022/06/21 06:14:46;;;;;;;;;;;;;;;-149.78;100.00;50056.84;5103934;28;19924;-70
2022/06/21 06:17:34;;;;;;;;;;;;;;;-149.78;100.00;50056.84;5098866;28;19923;-71
2022/06/21 06:20:04;;;;;;;;;;;;;;;-149.78;100.00;50084.22;5098911;28;19924;-70
2022/06/21 06:22:36;;;;;;;;;;;;;;;-149.78;100.00;50049.03;5097281;28;19961;-71
2022/06/21 06:25:10;;;;;;;;;;;;;;;-149.78;87.59;50052.94;5099024;28;19931;-72
2022/06/21 06:27:36;;;;;;;;;;;;;;;-149.78;67.39;50035.34;5100415;28;19915;-72
2022/06/21 06:30:04;;;;;;;;;;;;;;;-149.78;58.79;50033.38;5096660;28;20255;-69
2022/06/21 06:32:43;;;;;;;;;;;;;;;-149.78;54.85;49986.44;5084303;28;20257;-71
2022/06/21 06:35:14;;;;;;;;;;;;;;;-149.78;53.68;49990.34;5081069;28;19920;-70
2022/06/21 06:37:42;;;;;;;;;;;;;;;-149.78;49.68;49974.72;5078655;28;19925;-72
2022/06/21 06:40:20;;;;;;;;;;;;;;;-149.78;50.05;49974.72;5085048;28;19928;-68
2022/06/21 06:42:47;;;;;;;;;;;;;;;-149.78;44.06;49931.69;5078996;28;19920;-69
2022/06/21 06:45:15;;;;;;;;;;;;;;;-149.78;40.85;49974.72;5077331;28;19916;-70
2022/06/21 06:47:44;;;;;;;;;;;;;;;-149.78;41.30;49986.44;5081645;28;19966;-70
2022/06/21 06:50:16;;;;;;;;;;;;;;;-149.78;41.74;49959.06;5083422;28;20372;-70
2022/06/21 06:52:45;;;;;;;;;;;;;;;-149.78;40.63;49970.78;5078157;28;19927;-71
2022/06/21 06:55:14;;;;;;;;;;;;;;;-149.78;37.91;49951.25;5078385;28;20011;-69
2022/06/21 06:57:52;;;;;;;;;;;;;;;-149.78;36.44;49896.50;5080857;28;19916;-68
2022/06/21 07:00:18;;;;;;;;;;;;;;;-149.78;36.44;49912.13;5077915;28;19921;-69
2022/06/21 07:03:02;;;;;;;;;;;;;;;-149.78;35.39;49908.22;5092112;28;19927;-69
2022/06/21 07:05:28;;;;;;;;;;;;;;;-149.78;34.91;49884.75;5100670;28;19926;-68
2022/06/21 07:07:57;;;;;;;;;;;;;;;-149.78;33.89;49874.97;5089973;28;19916;-68
2022/06/21 07:10:24;;;;;;;;;;;;;;;-149.78;34.72;49900.41;5074957;28;19917;-68
2022/06/21 07:12:51;;;;;;;;;;;;;;;-149.78;33.59;49873.03;5078673;28;20248;-68
2022/06/21 07:15:19;;;;;;;;;;;;;;;-149.78;32.59;49849.56;5079904;28;19920;-68
2022/06/21 07:17:50;;;;;;;;;;;;;;;-149.78;33.18;49841.72;5075658;28;19931;-68
2022/06/21 07:20:22;;;;;;;;;;;;;;;-149.78;31.62;49855.41;5077189;28;19920;-68
2022/06/21 07:22:48;;;;;;;;;;;;;;;-149.78;32.26;49831.97;5076357;28;20007;-68
2022/06/21 07:25:21;;;;;;;;;;;;;;;-149.78;32.17;49826.09;5086050;28;19927;-68
2022/06/21 07:27:49;;;;;;;;;;;;;;;-149.78;31.51;49828.03;5091224;28;19923;-68
2022/06/21 07:30:16;;;;;;;;;;;;;;;-149.78;31.96;49845.66;5078381;28;19917;-67
2022/06/21 07:32:46;;;;;;;;;;;;;;;-149.78;30.64;49775.25;5086703;28;19927;-67
2022/06/21 07:35:18;;;;;;;;;;;;;;;-149.78;29.50;49771.34;5082822;28;20279;-67
2022/06/21 07:37:54;;;;;;;;;;;;;;;-149.78;29.34;49771.34;5091044;28;19920;-68
2022/06/21 07:40:23;;;;;;;;;;;;;;;-149.78;29.12;49771.34;5091600;28;19921;-68
2022/06/21 07:42:54;;;;;;;;;;;;;;;-149.78;28.62;49736.13;5087544;28;20292;-68
2022/06/21 07:45:29;;;;;;;;;;;;;;;-149.78;28.37;49685.31;5084744;28;19942;-68
2022/06/21 07:47:54;;;;;;;;;;;;;;;-149.78;27.19;49697.03;5080390;28;19959;-68
2022/06/21 07:50:22;;;;;;;;;;;;;;;-149.78;27.23;49689.22;5074846;28;19994;-68
2022/06/21 07:52:51;;;;;;;;;;;;;;;-149.78;27.38;49697.03;5091852;28;20291;-68
2022/06/21 07:55:31;;;;;;;;;;;;;;;-149.78;26.35;49665.75;5089044;28;19977;-68
2022/06/21 07:58:01;;;;;;;;;;;;;;;-149.78;26.82;49632.50;5089167;28;19995;-68
2022/06/21 08:06:41;;;;;;;;;;;;;;;-149.78;26.49;49655.97;5088315;28;19928;-68
2022/06/21 08:09:07;;;;;;;;;;;;;;;-149.78;27.40;49665.75;5083534;28;19920;-69
2022/06/21 08:11:43;;;;;;;;;;;;;;;-149.78;27.45;49689.22;5077832;28;19971;-69
2022/06/21 08:14:10;;;;;;;;;;;;;;;-149.78;27.51;49677.47;5089415;28;19966;-69
2022/06/21 08:16:50;;;;;;;;;;;;;;;-149.78;26.99;49685.31;5079093;28;19923;-69
2022/06/21 08:19:28;;;;;;;;;;;;;;;-149.78;28.21;49681.38;5080474;28;19931;-69
2022/06/21 08:21:59;;;;;;;;;;;;;;;-149.78;28.24;49697.03;5082227;28;19917;-69
2022/06/21 08:24:33;;;;;;;;;;;;;;;-149.78;27.63;49673.56;5078026;28;19997;-69
2022/06/21 08:26:58;;;;;;;;;;;;;;;-149.78;27.20;49659.88;5074368;28;20423;-70
2022/06/21 08:29:28;;;;;;;;;;;;;;;-149.78;26.97;49665.75;5075243;28;20053;-70
2022/06/21 08:31:55;;;;;;;;;;;;;;;-149.78;27.67;49687.25;5088122;28;19968;-70
2022/06/21 08:34:23;;;;;;;;;;;;;;;-149.78;27.46;49624.69;5077412;28;20304;-69
2022/06/21 08:36:49;;;;;;;;;;;;;;;-149.78;27.38;49644.25;5085196;28;19924;-70
2022/06/21 08:39:17;;;;;;;;;;;;;;;-149.78;27.60;49650.09;5082473;28;19925;-70
2022/06/21 08:42:15;;;;;;;;;;;;;;;-149.78;27.00;49626.63;5088054;28;20297;-70
2022/06/21 08:44:41;;;;;;;;;;;;;;;-149.78;26.92;49638.38;5056530;28;19927;-68
2022/06/21 08:47:15;;;;;;;;;;;;;;;-149.78;27.54;49630.56;5078415;28;20291;-70
2022/06/21 08:49:59;;;;;;;;;;;;;;;-149.78;28.33;49654.00;5076522;28;19927;-70
2022/06/21 08:52:29;;;;;;;;;;;;;;;-149.78;28.09;49655.97;5076325;28;19920;-70
2022/06/21 08:54:56;;;;;;;;;;;;;;;-149.78;27.81;49612.94;5083458;28;19920;-70
2022/06/21 08:57:32;;;;;;;;;;;;;;;-149.78;27.30;49612.94;5084161;28;19927;-71
2022/06/21 09:00:02;;;;;;;;;;;;;;;-149.78;28.44;49677.47;5076800;28;19970;-70
2022/06/21 09:02:43;;;;;;;;;;;;;;;-149.78;29.85;49697.03;5075592;28;19916;-70
2022/06/21 09:05:27;;;;;;;;;;;;;;;-149.78;29.08;49685.31;5090413;28;19943;-70
2022/06/21 09:08:01;;;;;;;;;;;;;;;-149.78;30.35;49747.88;5091342;28;19920;-69
2022/06/21 09:10:40;;;;;;;;;;;;;;;-149.78;31.23;49720.50;5076339;28;19920;-70
2022/06/21 09:13:05;;;;;;;;;;;;;;;-149.78;30.87;49716.59;5083230;28;19916;-70
2022/06/21 09:15:37;;;;;;;;;;;;;;;-149.78;30.19;49747.88;5084782;28;19916;-70
2022/06/21 09:18:17;;;;;;;;;;;;;;;-149.78;31.43;49745.91;5081356;28;19955;-70
2022/06/21 09:21:02;;;;;;;;;;;;;;;-149.78;30.10;49697.03;5073997;28;19920;-70
2022/06/21 09:23:46;;;;;;;;;;;;;;;-149.78;29.53;49638.38;5076683;28;19921;-71
2022/06/21 09:26:30;;;;;;;;;;;;;;;-149.78;28.36;49597.31;5086212;28;19923;-70
2022/06/21 09:28:59;;;;;;;;;;;;;;;-149.78;27.38;49622.72;5090445;28;19922;-70
2022/06/21 09:31:36;;;;;;;;;;;;;;;-149.78;29.39;49687.25;5088175;28;19963;-71
2022/06/21 09:34:14;;;;;;;;;;;;;;;-149.78;30.18;49708.75;5083648;28;20291;-70
2022/06/21 09:36:39;;;;;;;;;;;;;;;-149.78;29.58;49638.38;5083549;28;19916;-71
2022/06/21 09:39:10;;;;;;;;;;;;;;;-149.78;28.51;49611.00;5092892;28;20011;-71
2022/06/21 09:41:44;;;;;;;;;;;;;;;-149.78;28.57;49663.78;5074986;28;19916;-71
2022/06/21 09:44:09;;;;;;;;;;;;;;;-149.78;28.50;49632.50;5081686;28;20019;-71
2022/06/21 09:46:53;;;;;;;;;;;;;;;-149.78;29.01;49657.94;5074813;28;20003;-70
2022/06/21 09:49:25;;;;;;;;;;;;;;;-149.78;28.67;49652.06;5092870;28;20370;-69
2022/06/21 09:52:05;;;;;;;;;;;;;;;-149.78;29.53;49650.09;5092707;28;19960;-70
2022/06/21 09:54:36;;;;;;;;;;;;;;;-149.78;30.21;49685.31;5087514;28;19923;-69
2022/06/21 09:57:10;;;;;;;;;;;;;;;-149.78;30.76;49755.69;5075546;28;19920;-70
2022/06/21 09:59:54;;;;;;;;;;;;;;;-149.78;31.29;49712.69;5077488;28;19920;-70
2022/06/21 10:02:26;;;;;;;;;;;;;;;-149.78;30.24;49700.94;5083516;28;19961;-70
2022/06/21 10:04:51;;;;;;;;;;;;;;;-149.78;30.24;49743.97;5082387;28;20015;-70
2022/06/21 10:07:17;;;;;;;;;;;;;;;-149.78;30.73;49745.91;5077904;28;20385;-69
2022/06/21 10:10:01;;;;;;;;;;;;;;;-149.78;31.49;49742.00;5082610;28;19927;-69
2022/06/21 10:12:40;;;;;;;;;;;;;;;-149.78;31.71;49740.06;5082597;28;19920;-70
2022/06/21 10:15:11;;;;;;;;;;;;;;;-149.78;31.29;49720.50;5083422;28;19983;-69
2022/06/21 10:17:36;;;;;;;;;;;;;;;-149.78;31.65;49751.78;5086645;28;19920;-69
2022/06/21 10:20:20;;;;;;;;;;;;;;;-149.78;31.15;49724.41;5093555;28;19948;-70
2022/06/21 10:23:05;;;;;;;;;;;;;;;-149.78;30.70;49720.50;5076321;28;20413;-70
2022/06/21 10:25:31;;;;;;;;;;;;;;;-149.78;31.66;49786.97;5090615;28;19916;-70
2022/06/21 10:28:03;;;;;;;;;;;;;;;-149.78;32.26;49771.34;5088376;28;20336;-70
2022/06/21 10:30:43;;;;;;;;;;;;;;;-149.78;31.18;49751.78;5081406;28;20015;-70
2022/06/21 10:33:27;;;;;;;;;;;;;;;-149.78;30.66;49720.50;5087069;28;19917;-70
2022/06/21 10:36:01;;;;;;;;;;;;;;;-149.78;29.79;49708.75;5105046;28;19923;-70
2022/06/21 10:38:36;;;;;;;;;;;;;;;-149.78;29.81;49740.06;5101513;28;19969;-70
2022/06/21 10:41:16;;;;;;;;;;;;;;;-149.78;29.24;49736.13;5102709;28;20374;-69
2022/06/21 10:44:00;;;;;;;;;;;;;;;-149.78;29.96;49740.06;5100010;28;19920;-70
2022/06/21 10:46:44;;;;;;;;;;;;;;;-149.78;30.89;49755.69;5104155;28;19916;-70
2022/06/21 10:49:10;;;;;;;;;;;;;;;-149.78;30.15;49759.59;5102828;28;20371;-70
2022/06/21 10:51:53;;;;;;;;;;;;;;;-149.78;30.83;49759.59;5102431;28;19923;-70
2022/06/21 10:54:27;;;;;;;;;;;;;;;-149.78;31.88;49747.88;5104105;28;20011;-70
2022/06/21 10:57:15;;;;;;;;;;;;;;;-149.78;31.49;49757.66;5101844;28;19976;-70
2022/06/21 11:02:43;;;;;;;;;;;;;;;-149.78;32.96;49802.63;5101563;28;19931;-71
2022/06/21 11:05:17;;;;;;;;;;;;;;;-149.78;33.56;49794.81;5103297;28;19927;-70
2022/06/21 11:07:43;;;;;;;;;;;;;;;-149.78;32.95;49783.06;5101546;28;19923;-69
2022/06/21 11:10:17;;;;;;;;;;;;;;;-149.78;32.16;49773.28;5100975;28;19924;-69
2022/06/21 11:13:04;;;;;;;;;;;;;;;-149.78;31.87;49779.16;5100262;28;19924;-70
2022/06/21 11:15:49;;;;;;;;;;;;;;;-149.78;32.10;49779.16;5099787;28;19926;-69
2022/06/21 11:18:15;;;;;;;;;;;;;;;-149.78;31.67;49763.53;5102200;28;19924;-70
2022/06/21 11:21:00;;;;;;;;;;;;;;;-149.78;31.67;49755.69;5104951;28;19920;-69
2022/06/21 11:23:28;;;;;;;;;;;;;;;-149.78;31.73;49724.41;5103540;28;19923;-69
2022/06/21 11:26:02;;;;;;;;;;;;;;;-149.78;31.32;49771.34;5102277;28;19922;-70
2022/06/21 11:28:46;;;;;;;;;;;;;;;-149.78;31.18;49728.31;5104144;28;19958;-69
2022/06/21 11:31:15;;;;;;;;;;;;;;;-149.78;30.99;49712.69;5103176;28;20027;-70
2022/06/21 11:34:00;;;;;;;;;;;;;;;-149.78;30.62;49728.31;5104419;28;19923;-69
2022/06/21 11:36:53;;;;;;;;;;;;;;;-149.78;31.33;49728.31;5103963;28;19923;-69
2022/06/21 11:39:46;;;;;;;;;;;;;;;-149.78;31.58;49753.75;5103109;28;20026;-70
2022/06/21 11:42:23;;;;;;;;;;;;;;;-149.78;32.19;49814.34;5103079;28;19985;-70
2022/06/21 11:45:07;;;;;;;;;;;;;;;-149.78;34.76;49786.97;5100711;28;19927;-70
2022/06/21 11:47:53;;;;;;;;;;;;;;;-149.78;33.59;49783.06;5105156;28;19916;-70
2022/06/21 11:50:20;;;;;;;;;;;;;;;-149.78;32.69;49822.19;5102080;28;19923;-70
2022/06/21 11:53:04;;;;;;;;;;;;;;;-149.78;32.45;49767.44;5104151;28;19969;-70
2022/06/21 11:55:37;;;;;;;;;;;;;;;-149.78;32.38;49736.13;5101012;28;19919;-70
2022/06/21 11:58:18;;;;;;;;;;;;;;;-149.78;32.13;49743.97;5100954;28;19931;-71
2022/06/21 12:00:52;;;;;;;;;;;;;;;-149.78;31.07;49720.50;5102580;28;19919;-70
2022/06/21 12:03:47;;;;;;;;;;;;;;;-149.78;30.57;49734.19;5103417;28;20018;-70
2022/06/21 12:06:29;;;;;;;;;;;;;;;-149.78;32.87;49759.59;5082499;28;19973;-69
2022/06/21 12:09:03;;;;;;;;;;;;;;;-149.78;32.16;49728.31;5103740;28;19923;-70
2022/06/21 12:12:05;;;;;;;;;;;;;;;-149.78;32.04;49747.88;5099846;28;19926;-72
2022/06/21 12:14:45;;;;;;;;;;;;;;;-149.78;31.75;49767.44;5081195;28;19924;-69
2022/06/21 12:17:13;;;;;;;;;;;;;;;-149.78;32.31;49751.78;5098721;28;20038;-70
2022/06/21 12:19:41;;;;;;;;;;;;;;;-149.78;31.86;49751.78;5100856;28;19928;-70
2022/06/21 12:22:24;;;;;;;;;;;;;;;-149.78;32.17;49788.94;5101550;28;19924;-70
2022/06/21 12:24:51;;;;;;;;;;;;;;;-149.78;32.42;49743.97;5102979;28;19915;-69
2022/06/21 12:27:17;;;;;;;;;;;;;;;-149.78;32.97;49783.06;5105063;28;20023;-69
2022/06/21 12:30:07;;;;;;;;;;;;;;;-149.78;32.51;49763.53;5102313;28;20004;-70
2022/06/21 12:33:04;;;;;;;;;;;;;;;-149.78;33.01;49802.63;5098441;28;20394;-70
2022/06/21 12:35:48;;;;;;;;;;;;;;;-149.78;33.61;49779.16;5079142;28;19942;-69
2022/06/21 12:38:34;;;;;;;;;;;;;;;-149.78;34.37;49794.81;5076459;28;19958;-69
2022/06/21 12:41:29;;;;;;;;;;;;;;;-149.78;33.16;49796.75;5094060;28;19950;-69
2022/06/21 12:44:29;;;;;;;;;;;;;;;-149.78;34.06;49783.06;5099462;28;19932;-69
2022/06/21 12:47:22;;;;;;;;;;;;;;;-149.78;34.41;49775.25;5098648;28;20401;-69
2022/06/21 12:50:06;;;;;;;;;;;;;;;-149.78;33.92;49775.25;5101483;28;19953;-69
2022/06/21 12:52:54;;;;;;;;;;;;;;;-149.78;33.70;49777.22;5099586;28;19931;-69
2022/06/21 12:55:44;;;;;;;;;;;;;;;-149.78;33.61;49775.25;5095689;28;19929;-69
2022/06/21 12:58:27;;;;;;;;;;;;;;;-149.78;34.02;49814.34;5099878;28;20313;-69
2022/06/21 13:01:16;;;;;;;;;;;;;;;-149.78;34.00;49775.25;5096872;28;19958;-69
2022/06/21 13:04:00;;;;;;;;;;;;;;;-149.78;34.04;49779.16;5101097;28;20453;-69
2022/06/21 13:06:47;;;;;;;;;;;;;;;-149.78;34.97;49794.81;5103800;28;19923;-69